createdAt,value
2022-08-31T00:00:15.333Z,38.20
2022-08-31T00:03:01.788Z,38.45
2022-08-31T00:05:29.394Z,38.06
2022-08-31T00:07:57.000Z,38.05
2022-08-31T00:10:31.933Z,38.23
2022-08-31T00:13:01.451Z,38.24
2022-08-31T00:15:30.698Z,38.61
2022-08-31T00:17:59.005Z,42.70
2022-08-31T00:20:33.250Z,42.54
2022-08-31T00:23:04.775Z,40.50
2022-08-31T00:25:34.019Z,39.40
2022-08-31T00:28:02.050Z,39.60
2022-08-31T00:30:30.457Z,39.66
2022-08-31T00:32:58.709Z,41.24
2022-08-31T00:35:28.474Z,39.23
2022-08-31T00:37:56.107Z,39.87
2022-08-31T00:40:24.167Z,39.77
2022-08-31T00:42:51.719Z,40.35
2022-08-31T00:45:19.579Z,39.51
2022-08-31T00:47:47.266Z,39.78
2022-08-31T00:50:17.649Z,39.52
2022-08-31T00:52:49.962Z,39.88
2022-08-31T00:55:34.162Z,39.59
2022-08-31T00:58:05.305Z,40.05
2022-08-31T01:00:33.125Z,40.01
2022-08-31T01:03:02.786Z,39.65
2022-08-31T01:05:31.680Z,40.22
2022-08-31T01:08:01.311Z,40.43
2022-08-31T01:10:34.227Z,39.95
2022-08-31T01:13:02.549Z,39.90
2022-08-31T01:15:31.272Z,39.74
2022-08-31T01:18:02.376Z,40.03
2022-08-31T01:20:48.781Z,40.05
2022-08-31T01:23:30.266Z,39.93
2022-08-31T01:25:59.357Z,40.24
2022-08-31T01:28:27.075Z,40.76
2022-08-31T01:31:00.095Z,41.72
2022-08-31T01:33:29.198Z,41.17
2022-08-31T01:35:57.522Z,41.10
2022-08-31T01:38:25.780Z,41.12
2022-08-31T01:40:59.254Z,41.75
2022-08-31T01:43:26.776Z,41.45
2022-08-31T01:45:55.113Z,41.66
2022-08-31T01:48:23.913Z,41.64
2022-08-31T01:50:52.189Z,41.73
2022-08-31T01:53:19.928Z,41.49
2022-08-31T01:55:47.581Z,41.66
2022-08-31T01:58:15.560Z,41.92
2022-08-31T02:00:58.148Z,41.12
2022-08-31T02:03:25.765Z,41.73
2022-08-31T02:08:19.563Z,41.21
2022-08-31T02:10:47.825Z,41.40
2022-08-31T02:13:15.470Z,41.70
2022-08-31T02:15:43.064Z,41.33
2022-08-31T02:18:12.121Z,41.49
2022-08-31T02:20:39.984Z,41.59
2022-08-31T02:23:07.545Z,41.95
2022-08-31T02:25:35.131Z,41.64
2022-08-31T02:28:03.832Z,41.33
2022-08-31T02:30:31.472Z,41.36
2022-08-31T02:32:58.985Z,41.20
2022-08-31T02:35:27.353Z,40.76
2022-08-31T02:37:55.266Z,41.20
2022-08-31T02:40:22.870Z,41.22
2022-08-31T02:42:52.702Z,41.84
2022-08-31T02:45:25.153Z,41.16
2022-08-31T02:47:56.261Z,40.38
2022-08-31T02:50:30.023Z,40.71
2022-08-31T02:52:59.085Z,41.42
2022-08-31T02:55:29.170Z,41.81
2022-08-31T02:57:56.679Z,42.06
2022-08-31T03:00:25.067Z,41.86
2022-08-31T03:02:52.604Z,41.65
2022-08-31T03:05:21.074Z,41.50
2022-08-31T03:07:50.135Z,41.87
2022-08-31T03:10:21.420Z,41.31
2022-08-31T03:12:50.745Z,41.57
2022-08-31T03:15:20.943Z,40.61
2022-08-31T03:17:48.852Z,40.30
2022-08-31T03:20:19.341Z,40.77
2022-08-31T03:22:47.019Z,40.18
2022-08-31T03:25:16.664Z,40.09
2022-08-31T03:27:46.235Z,40.00
2022-08-31T03:30:17.825Z,39.17
2022-08-31T03:32:53.167Z,38.73
2022-08-31T03:35:24.981Z,38.38
2022-08-31T03:37:52.793Z,38.35
2022-08-31T03:40:20.436Z,37.64
2022-08-31T03:42:48.063Z,37.85
2022-08-31T03:45:16.413Z,37.77
2022-08-31T03:47:44.882Z,37.75
2022-08-31T03:50:16.269Z,37.47
2022-08-31T03:53:12.991Z,36.90
2022-08-31T03:55:42.590Z,36.70
2022-08-31T03:58:12.328Z,36.40
2022-08-31T04:00:40.626Z,36.27
2022-08-31T04:03:21.350Z,35.76
2022-08-31T04:06:12.220Z,35.40
2022-08-31T04:09:02.816Z,35.23
2022-08-31T04:11:52.098Z,34.62
2022-08-31T04:14:38.895Z,34.40
2022-08-31T04:17:41.524Z,34.35
2022-08-31T04:20:42.444Z,33.37
2022-08-31T04:23:10.188Z,33.25
2022-08-31T04:25:43.215Z,32.10
2022-08-31T04:28:11.809Z,31.63
2022-08-31T04:30:43.430Z,31.75
2022-08-31T04:33:15.732Z,31.29
2022-08-31T04:35:44.462Z,30.54
2022-08-31T04:38:12.499Z,30.83
2022-08-31T04:40:44.130Z,30.40
2022-08-31T04:43:12.084Z,30.04
2022-08-31T04:45:44.596Z,28.80
2022-08-31T04:48:15.063Z,28.75
2022-08-31T04:50:43.652Z,27.89
2022-08-31T04:53:11.841Z,27.96
2022-08-31T04:55:41.463Z,27.09
2022-08-31T04:58:13.998Z,26.51
2022-08-31T05:00:44.915Z,26.80
2022-08-31T05:03:30.964Z,25.83
2022-08-31T05:05:58.585Z,24.92
2022-08-31T05:08:28.110Z,24.35
2022-08-31T05:10:55.790Z,24.60
2022-08-31T05:13:23.478Z,23.62
2022-08-31T05:15:54.888Z,23.38
2022-08-31T05:18:22.760Z,22.81
2022-08-31T05:20:56.242Z,22.91
2022-08-31T05:23:24.201Z,22.64
2022-08-31T05:25:51.880Z,22.00
2022-08-31T05:28:23.832Z,21.94
2022-08-31T05:30:51.606Z,21.42
2022-08-31T05:33:31.274Z,20.77
2022-08-31T05:36:02.334Z,20.92
2022-08-31T05:38:29.929Z,20.20
2022-08-31T05:41:00.775Z,20.67
2022-08-31T05:43:29.561Z,20.37
2022-08-31T05:45:57.775Z,20.63
2022-08-31T05:48:30.147Z,20.47
2022-08-31T05:51:02.251Z,20.08
2022-08-31T05:53:29.833Z,20.37
2022-08-31T05:56:03.078Z,19.91
2022-08-31T05:58:32.024Z,20.26
2022-08-31T06:01:00.454Z,20.37
2022-08-31T06:03:51.898Z,20.56
2022-08-31T06:06:19.537Z,19.95
2022-08-31T06:08:52.031Z,19.96
2022-08-31T06:11:22.929Z,19.66
2022-08-31T06:13:54.790Z,19.22
2022-08-31T06:16:23.322Z,18.95
2022-08-31T06:18:51.548Z,19.17
2022-08-31T06:21:22.189Z,18.33
2022-08-31T06:23:51.841Z,19.01
2022-08-31T06:26:23.892Z,18.79
2022-08-31T06:28:54.046Z,18.66
2022-08-31T06:31:30.162Z,19.65
2022-08-31T06:33:58.596Z,19.21
2022-08-31T06:36:52.406Z,19.25
2022-08-31T06:39:39.431Z,19.73
2022-08-31T06:42:09.740Z,19.76
2022-08-31T06:44:56.221Z,20.01
2022-08-31T06:47:36.658Z,20.20
2022-08-31T06:50:06.263Z,20.28
2022-08-31T06:52:38.666Z,20.48
2022-08-31T06:55:20.886Z,20.00
2022-08-31T06:58:06.758Z,20.43
2022-08-31T07:00:52.900Z,20.60
2022-08-31T07:03:49.213Z,20.81
2022-08-31T07:06:22.875Z,20.36
2022-08-31T07:08:53.668Z,20.30
2022-08-31T07:11:25.323Z,20.56
2022-08-31T07:13:54.870Z,20.77
2022-08-31T07:16:24.847Z,21.13
2022-08-31T07:18:54.966Z,20.93
2022-08-31T07:21:25.762Z,20.27
2022-08-31T07:23:55.162Z,20.07
2022-08-31T07:26:28.041Z,19.90
2022-08-31T07:28:58.195Z,19.78
2022-08-31T07:31:37.841Z,19.39
2022-08-31T07:34:08.315Z,19.64
2022-08-31T07:37:04.827Z,19.76
2022-08-31T07:39:52.317Z,19.49
2022-08-31T07:42:25.485Z,19.41
2022-08-31T07:44:53.923Z,19.19
2022-08-31T07:47:22.956Z,19.36
2022-08-31T07:49:54.028Z,19.69
2022-08-31T07:52:35.915Z,19.47
2022-08-31T07:55:25.244Z,19.45
2022-08-31T07:57:56.082Z,19.71
2022-08-31T08:00:29.769Z,19.76
2022-08-31T08:03:07.465Z,19.88
2022-08-31T08:05:55.741Z,19.62
2022-08-31T08:09:12.747Z,19.70
2022-08-31T08:11:55.520Z,19.74
2022-08-31T08:14:59.398Z,20.19
2022-08-31T08:17:38.350Z,19.56
2022-08-31T08:20:13.774Z,19.64
2022-08-31T08:22:55.205Z,19.95
2022-08-31T08:25:35.141Z,19.25
2022-08-31T08:31:07.685Z,20.05
2022-08-31T08:33:36.582Z,20.42
2022-08-31T08:36:08.111Z,20.40
2022-08-31T08:38:42.677Z,20.25
2022-08-31T08:41:20.592Z,20.71
2022-08-31T08:43:57.430Z,20.87
2022-08-31T08:46:51.399Z,20.27
2022-08-31T08:49:29.713Z,20.99
2022-08-31T08:52:38.253Z,20.90
2022-08-31T08:55:10.101Z,21.27
2022-08-31T08:57:42.810Z,20.85
2022-08-31T09:00:25.175Z,21.63
2022-08-31T09:03:23.936Z,21.42
2022-08-31T09:06:12.808Z,22.02
2022-08-31T09:09:08.987Z,21.74
2022-08-31T09:12:01.534Z,21.89
2022-08-31T09:14:38.532Z,22.79
2022-08-31T09:17:36.945Z,22.74
2022-08-31T09:20:07.831Z,22.90
2022-08-31T09:22:47.287Z,23.16
2022-08-31T09:25:33.672Z,23.18
2022-08-31T09:28:36.217Z,23.42
2022-08-31T09:31:04.304Z,23.79
2022-08-31T09:33:51.332Z,23.65
2022-08-31T09:36:23.124Z,24.23
2022-08-31T09:38:50.715Z,23.98
2022-08-31T09:41:21.594Z,24.50
2022-08-31T09:43:50.929Z,24.39
2022-08-31T09:46:36.544Z,23.92
2022-08-31T09:49:06.648Z,24.72
2022-08-31T09:51:37.010Z,24.13
2022-08-31T09:54:47.492Z,24.12
2022-08-31T09:57:15.348Z,24.27
2022-08-31T09:59:49.608Z,24.80
2022-08-31T10:02:23.347Z,24.71
2022-08-31T10:04:56.915Z,24.78
2022-08-31T10:07:30.448Z,24.85
2022-08-31T10:10:28.170Z,24.98
2022-08-31T10:13:10.553Z,25.25
2022-08-31T10:15:48.790Z,24.98
2022-08-31T10:18:24.320Z,25.30
2022-08-31T10:21:08.578Z,25.31
2022-08-31T10:23:39.283Z,25.85
2022-08-31T10:26:18.382Z,25.93
2022-08-31T10:28:52.114Z,25.94
2022-08-31T10:31:24.553Z,25.54
2022-08-31T10:34:17.595Z,25.58
2022-08-31T10:36:47.990Z,25.57
2022-08-31T10:39:54.410Z,25.47
2022-08-31T10:42:32.723Z,25.35
2022-08-31T10:45:13.299Z,25.46
2022-08-31T10:47:49.383Z,25.47
2022-08-31T10:50:28.921Z,25.49
2022-08-31T10:53:02.525Z,26.02
2022-08-31T10:55:33.874Z,25.82
2022-08-31T10:58:07.253Z,26.59
2022-08-31T11:00:56.841Z,26.02
2022-08-31T11:04:11.431Z,26.16
2022-08-31T11:06:51.060Z,26.69
2022-08-31T11:09:39.827Z,26.72
2022-08-31T11:12:12.076Z,27.13
2022-08-31T11:15:10.377Z,26.97
2022-08-31T11:17:50.348Z,27.34
2022-08-31T11:20:47.603Z,27.96
2022-08-31T11:23:35.431Z,27.66
2022-08-31T11:26:48.180Z,28.17
2022-08-31T11:29:46.587Z,30.90
2022-08-31T11:32:20.473Z,30.51
2022-08-31T11:34:55.803Z,31.58
2022-08-31T11:37:57.435Z,35.47
2022-08-31T11:40:43.064Z,34.39
2022-08-31T11:43:32.702Z,47.14
2022-08-31T11:46:28.075Z,51.04
2022-08-31T11:48:55.652Z,51.84
2022-08-31T11:51:41.750Z,47.35
2022-08-31T11:54:42.213Z,52.27
2022-08-31T11:57:15.988Z,54.16
2022-08-31T11:59:48.760Z,49.94
2022-08-31T12:02:23.140Z,60.78
2022-08-31T12:04:53.795Z,53.27
2022-08-31T12:07:36.760Z,55.74
2022-08-31T12:10:27.629Z,58.16
2022-08-31T12:12:55.519Z,58.14
2022-08-31T12:15:29.317Z,63.64
2022-08-31T12:18:34.740Z,75.24
2022-08-31T12:21:25.945Z,71.58
2022-08-31T12:24:24.082Z,72.74
2022-08-31T12:27:16.644Z,71.09
2022-08-31T12:29:44.637Z,64.37
2022-08-31T12:32:37.757Z,65.53
2022-08-31T12:35:27.390Z,66.68
2022-08-31T12:38:22.285Z,63.09
2022-08-31T12:40:55.123Z,58.42
2022-08-31T12:43:25.024Z,52.87
2022-08-31T12:45:58.699Z,56.22
2022-08-31T12:48:26.296Z,53.80
2022-08-31T12:51:03.140Z,56.66
2022-08-31T12:53:45.727Z,58.33
2022-08-31T12:56:23.467Z,55.02
2022-08-31T12:59:08.597Z,55.96
2022-08-31T13:01:42.345Z,57.15
2022-08-31T13:04:11.395Z,55.12
2022-08-31T13:06:42.214Z,55.22
2022-08-31T13:09:24.857Z,55.03
2022-08-31T13:11:53.198Z,51.47
2022-08-31T13:14:24.923Z,54.19
2022-08-31T13:17:12.653Z,54.54
2022-08-31T13:19:55.561Z,56.61
2022-08-31T13:22:40.473Z,57.10
2022-08-31T13:25:36.778Z,55.97
2022-08-31T13:28:19.673Z,56.44
2022-08-31T13:31:06.395Z,57.30
2022-08-31T13:33:36.972Z,55.86
2022-08-31T13:36:16.330Z,58.20
2022-08-31T13:38:51.162Z,58.29
2022-08-31T13:41:41.076Z,60.14
2022-08-31T13:44:13.370Z,57.45
2022-08-31T13:47:00.459Z,55.28
2022-08-31T13:49:35.729Z,61.20
2022-08-31T13:52:15.726Z,61.02
2022-08-31T13:54:43.552Z,58.23
2022-08-31T13:57:32.901Z,57.37
2022-08-31T14:00:33.488Z,56.48
2022-08-31T14:03:32.236Z,53.44
2022-08-31T14:06:24.288Z,55.14
2022-08-31T14:09:03.732Z,57.69
2022-08-31T14:11:33.975Z,57.42
2022-08-31T14:14:08.871Z,56.13
2022-08-31T14:16:40.216Z,56.43
2022-08-31T14:19:12.326Z,56.22
2022-08-31T14:21:42.403Z,56.50
2022-08-31T14:24:12.515Z,57.13
2022-08-31T14:26:42.948Z,57.33
2022-08-31T14:29:16.263Z,59.08
2022-08-31T14:31:48.861Z,56.19
2022-08-31T14:34:26.828Z,59.23
2022-08-31T14:37:11.662Z,60.30
2022-08-31T14:39:42.120Z,57.74
2022-08-31T14:42:17.453Z,57.89
2022-08-31T14:44:56.907Z,59.44
2022-08-31T14:47:30.508Z,58.24
2022-08-31T14:50:06.046Z,58.53
2022-08-31T14:52:39.945Z,59.87
2022-08-31T14:55:11.456Z,56.69
2022-08-31T14:57:43.337Z,58.99
2022-08-31T15:00:22.144Z,58.17
2022-08-31T15:02:53.713Z,58.20
2022-08-31T15:05:25.000Z,59.14
2022-08-31T15:07:54.424Z,58.92
2022-08-31T15:10:26.080Z,59.54
2022-08-31T15:12:54.477Z,58.08
2022-08-31T15:15:22.002Z,57.47
2022-08-31T15:17:51.944Z,59.15
2022-08-31T15:20:22.999Z,58.05
2022-08-31T15:22:51.126Z,57.63
2022-08-31T15:25:20.136Z,57.45
2022-08-31T15:27:47.758Z,57.50
2022-08-31T15:30:19.898Z,58.25
2022-08-31T15:32:48.318Z,57.38
2022-08-31T15:35:20.229Z,58.64
2022-08-31T15:37:57.385Z,59.17
2022-08-31T15:40:36.586Z,58.90
2022-08-31T15:43:16.078Z,56.59
2022-08-31T15:45:43.643Z,55.73
2022-08-31T15:48:29.825Z,55.84
2022-08-31T15:51:06.429Z,55.26
2022-08-31T15:53:35.721Z,55.12
2022-08-31T15:56:08.502Z,56.55
2022-08-31T15:58:39.260Z,55.29
2022-08-31T16:01:14.232Z,56.02
2022-08-31T16:03:42.669Z,55.05
2022-08-31T16:06:11.551Z,57.37
2022-08-31T16:08:41.458Z,57.38
2022-08-31T16:11:11.157Z,57.27
2022-08-31T16:14:15.449Z,60.32
2022-08-31T16:16:46.394Z,59.64
2022-08-31T16:19:28.051Z,57.82
2022-08-31T16:22:03.278Z,57.93
2022-08-31T16:24:36.290Z,56.79
2022-08-31T16:27:06.640Z,59.62
2022-08-31T16:29:34.679Z,58.00
2022-08-31T16:32:02.711Z,59.32
2022-08-31T16:34:31.811Z,59.00
2022-08-31T16:37:00.136Z,59.56
2022-08-31T16:39:28.301Z,60.51
2022-08-31T16:41:56.013Z,60.36
2022-08-31T16:44:23.478Z,61.35
2022-08-31T16:46:59.947Z,63.82
2022-08-31T16:49:34.277Z,62.31
2022-08-31T16:52:06.172Z,62.87
2022-08-31T16:54:34.616Z,63.95
2022-08-31T16:57:02.050Z,63.75
2022-08-31T16:59:30.338Z,64.32
2022-08-31T17:01:58.223Z,63.23
2022-08-31T17:07:15.829Z,65.64
2022-08-31T17:09:43.623Z,64.75
2022-08-31T17:12:14.577Z,67.67
2022-08-31T17:14:48.572Z,69.11
2022-08-31T17:17:20.070Z,67.74
2022-08-31T17:19:48.307Z,67.74
2022-08-31T17:22:23.497Z,68.02
2022-08-31T17:24:55.355Z,66.78
2022-08-31T17:27:23.011Z,65.80
2022-08-31T17:29:52.786Z,67.03
2022-08-31T17:32:23.613Z,66.07
2022-08-31T17:34:52.055Z,65.06
2022-08-31T17:37:28.049Z,68.23
2022-08-31T17:39:56.214Z,66.71
2022-08-31T17:42:27.350Z,67.46
2022-08-31T17:44:57.527Z,67.31
2022-08-31T17:47:25.833Z,66.55
2022-08-31T17:49:54.408Z,66.18
2022-08-31T17:52:23.413Z,66.06
2022-08-31T17:54:52.494Z,66.74
2022-08-31T17:57:25.435Z,68.67
2022-08-31T17:59:55.177Z,66.73
2022-08-31T18:02:27.875Z,67.76
2022-08-31T18:04:55.515Z,64.83
2022-08-31T18:07:23.308Z,64.72
2022-08-31T18:09:51.345Z,65.07
2022-08-31T18:12:27.684Z,64.99
2022-08-31T18:14:58.233Z,65.00
2022-08-31T18:17:26.862Z,64.54
2022-08-31T18:19:55.581Z,65.24
2022-08-31T18:22:23.065Z,65.59
2022-08-31T18:24:50.646Z,65.13
2022-08-31T18:27:18.380Z,66.25
2022-08-31T18:29:46.137Z,66.66
2022-08-31T18:32:14.539Z,66.28
2022-08-31T18:34:47.683Z,68.37
2022-08-31T18:37:22.327Z,67.23
2022-08-31T18:40:08.836Z,66.06
2022-08-31T18:42:57.600Z,65.88
2022-08-31T18:45:27.455Z,67.41
2022-08-31T18:50:47.523Z,67.54
2022-08-31T18:53:28.497Z,68.19
2022-08-31T18:56:17.186Z,73.64
2022-08-31T18:58:44.946Z,67.35
2022-08-31T19:01:15.718Z,67.86
2022-08-31T19:03:43.823Z,67.32
2022-08-31T19:06:20.401Z,71.28
2022-08-31T19:08:49.112Z,67.35
2022-08-31T19:11:19.366Z,67.52
2022-08-31T19:13:51.281Z,67.78
2022-08-31T19:16:21.319Z,69.57
2022-08-31T19:18:49.734Z,67.14
2022-08-31T19:21:26.555Z,71.20
2022-08-31T19:23:55.104Z,67.59
2022-08-31T19:26:41.934Z,72.03
2022-08-31T19:29:14.369Z,68.28
2022-08-31T19:31:45.031Z,70.19
2022-08-31T19:34:15.987Z,68.98
2022-08-31T19:36:45.665Z,69.93
2022-08-31T19:39:18.590Z,69.75
2022-08-31T19:41:53.996Z,71.09
2022-08-31T19:44:22.517Z,68.53
2022-08-31T19:46:53.684Z,68.58
2022-08-31T19:49:23.095Z,69.14
2022-08-31T19:51:56.332Z,70.07
2022-08-31T19:54:26.343Z,68.33
2022-08-31T19:56:54.809Z,69.97
2022-08-31T19:59:23.981Z,69.18
2022-08-31T20:01:53.435Z,69.54
2022-08-31T20:04:23.886Z,70.01
2022-08-31T20:06:52.270Z,69.34
2022-08-31T20:09:22.725Z,69.79
2022-08-31T20:11:51.799Z,69.83
2022-08-31T20:14:20.271Z,69.60
2022-08-31T20:16:48.597Z,69.76
2022-08-31T20:19:25.207Z,72.35
2022-08-31T20:21:54.883Z,70.73
2022-08-31T20:24:25.717Z,70.16
2022-08-31T20:27:09.000Z,68.55
2022-08-31T20:29:39.050Z,70.18
2022-08-31T20:32:08.256Z,67.85
2022-08-31T20:34:37.579Z,68.44
2022-08-31T20:37:05.138Z,68.09
2022-08-31T20:39:33.278Z,68.12
2022-08-31T20:42:01.686Z,67.58
2022-08-31T20:44:33.912Z,70.15
2022-08-31T20:47:26.349Z,70.10
2022-08-31T20:49:58.243Z,65.67
2022-08-31T20:52:29.167Z,69.02
2022-08-31T20:55:02.367Z,68.49
2022-08-31T20:57:34.365Z,68.74
2022-08-31T21:00:05.541Z,68.02
2022-08-31T21:02:35.807Z,68.33
2022-08-31T21:05:36.548Z,68.89
2022-08-31T21:07:57.549Z,69.25
2022-08-31T21:10:36.314Z,69.78
2022-08-31T21:13:12.754Z,73.79
2022-08-31T21:15:45.705Z,73.83
2022-08-31T21:18:18.308Z,70.74
2022-08-31T21:20:46.830Z,71.29
2022-08-31T21:23:14.339Z,71.12
2022-08-31T21:25:45.365Z,72.42
2022-08-31T21:28:15.907Z,74.66
2022-08-31T21:30:45.417Z,73.33
2022-08-31T21:33:13.025Z,74.15
2022-08-31T21:35:40.467Z,75.16
2022-08-31T21:38:09.754Z,76.05
2022-08-31T21:40:37.276Z,75.94
2022-08-31T21:43:05.291Z,75.81
2022-08-31T21:45:32.797Z,76.21
2022-08-31T21:48:00.290Z,75.76
2022-08-31T21:50:28.736Z,76.18
2022-08-31T21:53:00.282Z,76.40
2022-08-31T21:55:28.231Z,76.38
2022-08-31T21:57:55.708Z,76.45
2022-08-31T22:00:29.656Z,76.78
2022-08-31T22:02:57.450Z,76.28
2022-08-31T22:05:24.924Z,76.77
2022-08-31T22:07:52.366Z,76.51
2022-08-31T22:10:20.648Z,76.35
2022-08-31T22:12:48.074Z,76.50
2022-08-31T22:15:17.884Z,76.77
2022-08-31T22:18:11.366Z,76.34
2022-08-31T22:20:38.872Z,80.06
2022-08-31T22:23:09.205Z,76.24
2022-08-31T22:25:37.790Z,76.92
2022-08-31T22:28:10.391Z,76.86
2022-08-31T22:30:38.302Z,75.26
2022-08-31T22:33:05.709Z,75.56
2022-08-31T22:35:39.239Z,80.86
2022-08-31T22:38:07.507Z,76.15
2022-08-31T22:40:38.192Z,77.36
2022-08-31T22:43:05.871Z,76.05
2022-08-31T22:45:33.658Z,76.99
2022-08-31T22:48:01.199Z,76.63
2022-08-31T22:50:28.784Z,75.97
2022-08-31T22:52:56.306Z,76.83
2022-08-31T22:55:23.697Z,76.49
2022-08-31T22:57:51.103Z,76.92
2022-08-31T23:00:24.185Z,76.29
2022-08-31T23:02:52.996Z,76.01
2022-08-31T23:05:20.927Z,76.27
2022-08-31T23:07:49.070Z,75.99
2022-08-31T23:10:19.004Z,77.70
2022-08-31T23:12:51.483Z,77.74
2022-08-31T23:15:19.378Z,76.36
2022-08-31T23:17:50.248Z,79.17
2022-08-31T23:20:21.296Z,78.07
2022-08-31T23:22:49.987Z,76.57
2022-08-31T23:25:20.601Z,78.29
2022-08-31T23:27:49.277Z,76.24
2022-08-31T23:30:20.627Z,78.29
2022-08-31T23:32:48.206Z,76.16
2022-08-31T23:35:18.084Z,76.46
2022-08-31T23:37:46.567Z,75.88
2022-08-31T23:40:16.268Z,75.79
2022-08-31T23:42:43.838Z,74.87
2022-08-31T23:45:12.926Z,75.86
2022-08-31T23:47:40.550Z,74.52
2022-08-31T23:50:10.352Z,74.77
2022-08-31T23:52:41.818Z,74.08
2022-08-31T23:55:11.268Z,74.19
2022-08-31T23:57:40.120Z,74.00
